HTZA/ZNZ METAR and TAF weather

Enter ICAO airport designator
Station Type Date Time Source
HTZA METAR 2020/02/26 09:00 UTC NOAA

HTZA 260900Z 34007KT 9999 BKN025 BKN070 33/27 Q1010 NOSIG


Station Type Date Time Source
HTZA Decoded METAR 2020/02/26 09:00 UTC NOAA

Zanzibar / Kisauni, Tanzania (HTZA) 06-13S 039-13E 15M
Feb 26, 2020 - 04:00 AM EST / 2020.02.26 0900 UTC
Wind: from the NNW (340 degrees) at 8 MPH (7 KT):0
Visibility: greater than 7 mile(s):0
Sky conditions: mostly cloudy
Temperature: 91 F (33 C)
Heat index: 109.0 F (42.8 C):1
Dew Point: 80 F (27 C)
Relative Humidity: 70%
Pressure (altimeter): 29.83 in. Hg (1010 hPa)
ob: HTZA 260900Z 34007KT 9999 BKN025 BKN070 33/27 Q1010 NOSIG
cycle: 9

Station Type Date Time Source
HTZA TAF 2020/02/26 06:39 UTC NOAA

HTZA 260500Z 2606/2706 36010KT 9999 BKN018 BKN080
BECMG 2609/0911 06010KT SCT024
BECMG 2617/2619 00000KT
BECMG 2702/2704 36010KT BKN014 BKN080

Example: see airport list